Monroe, NC

7:00 AM EDT on April 26, 2017 (GMT -0400)
Hidden Valley | | Change Station
Active Advisory: Special Statement

Elev 562 ft 34.96 °N, 80.53 °W | Updated 32 seconds ago

Clear
Clear
54.9 °F
Feels Like 54.9 °F
N
0.0
Wind Variable Wind from NNE

Today
High -- | Low -- °F
--% Chance of Precip.
Yesterday
High -- | Low -- °F
Precip. -- in
Pressure 29.81 in
Visibility 5.0 miles
Clouds Clear
Dew Point 54 °F
Humidity 98%
Rainfall 0.00 in
Snow Depth Not available.
6:36 AM 8:03 PM
Waning Crescent, 0% visible
METAR KEQY 261053Z AUTO 00000KT 5SM BR CLR 13/12 A2979 RMK AO2 SLP092 T01280117
Pressure 29.81 in
Visibility 5.0 miles
Clouds Clear
Dew Point 54 °F
Humidity 98%
Rainfall 0.00 in
Snow Depth Not available.
6:36 AM 8:03 PM
Waning Crescent, 0% visible
METAR KEQY 261053Z AUTO 00000KT 5SM BR CLR 13/12 A2979 RMK AO2 SLP092 T01280117

Get Your Daily Forecast Email!

Thanks for signing up!

Be on the lookout for a verification email in your inbox.

You'll start receiving severe weather alerts in your inbox..

×

10-Day Weather Forecast

Almanac

Astronomy

Apr. 26, 2017 Rise Set
Actual Time
Civil Twilight
Nautical Twilight
Astronomical Twilight
Moon
Length of Visible Light
Length of Day
Tomorrow will be .
, % of the Moon is Illuminated

Today's Extremes

State Highs State Lows

Community

WunderPhotos

WunderBlog® & News

Nearby

Air Quality

  Air Quality AQ Index Pollutant
Not available.

Snow Depth

Station Depth Elevation

Earthquake Activity

City Distance Mag. Time & Date
Minimum magnitude displayed is 2.5.

Coastal Water Temperatures

Place Temperature

Stations

Nearby Weather Stations

Station Location Temp. Windchill Dew Point Humidity Wind Precip. Elev Updated Type
                   

Watches & Warnings

Special Statement
Issued: 6:28 AM EDT Apr. 26, 2017 – National Weather Service

... Patchy dense fog developing across much of the region...

Patchy dense continues to develop across the mountain valleys and
southern foothills and Piedmont of North Carolina, and across the
upstate and northeast Georgia early this morning. Visibilities
have been dropping to a quarter mile or lower at times, especially
in the Greenville and Anderson areas. Motorists are urged to use
extra caution on their morning commute, use low beam headlights,
and allow extra time to reach their destinations. The fog should
lift by around 9 am.


Ark